x

Smith Island, Wa (sisw1) Weather Station

11:00 - Fri 28th Apr 2017 All times are PDT. -7 hours from GMT.

  • Wind
    7mph, 8mph gusts
  • Air Temp 50°f
  • Sea Pressure 1028.1mb
  • Smith Island, Wa
  • Smith Island, Wa

More Historic Weather Station data

Upgrade to MSW Pro to gain access to the past 30 days of data for over 8000 Wavebouys and Weather Stations around the globe.

Join Pro

Comparision Forecast

View Surf forecast
   
ven. 04/28 11:00 7 8 mph 1028.1mb 50f
10:00 6 7 mph 1027.4mb 49f
9:00 1 2 mph 1027.3mb 49f
8:00 2
mph
1026.8mb 48f
7:00 7 8 mph 1026.3mb 47f
6:00 9 11 mph 1025.4mb 47f
5:00 16 18 mph 1025mb 47f
4:00 20 23 mph 1024.1mb 47f
3:00 21 23 mph 1023.4mb 48f
2:00 21 24 mph 1023.1mb 48f
1:00 20 25 mph 1022.5mb 48f
12:00 23 30 mph 1022mb 48f
jeu. 04/27 11:00 18 28 mph 1021.6mb 48f
10:00 26 31 mph 1021.1mb 48f
9:00 29 33 mph 1020.4mb 48f
8:00 22 29 mph 1019.7mb 49f
7:00 29 33 mph 1019.1mb 49f
6:00 15 18 mph 1019.1mb 49f
5:00 21 26 mph 1018.9mb 50f
4:00 25 30 mph 1018.6mb 50f
3:00 21 29 mph 1018.6mb 50f
2:00 11 20 mph 1018.4mb 50f
1:00 16 24 mph 1018.1mb 49f
12:00 20 26 mph 1018.3mb 48f
11:00 16 23 mph 1018.1mb 48f
10:00 15 22 mph 1018mb 47f
9:00 11 20 mph 1017.8mb 47f
8:00 20 22 mph 1017.4mb 47f
7:00 14 22 mph 1017.1mb 46f
6:00 16 25 mph 1016.6mb 46f
5:00 13 22 mph 1016.4mb 46f
3:00 20 24 mph 1015.7mb 47f
2:00 24 31 mph 1015.4mb 47f
1:00 23 32 mph 1014.9mb 46f
12:00 30 34 mph 1014.1mb 47f
mer. 04/26 11:00 25 32 mph 1013.7mb 47f
10:00 26 36 mph 1013.4mb 48f
9:00 23 31 mph 1012.7mb 48f
8:00 34 38 mph 1011.8mb 48f
7:00 32 36 mph 1011.4mb 49f
6:00 31 38 mph 1011mb 50f
5:00 36 39 mph 1010.1mb 50f
4:00 28 32 mph 1010.4mb 50f
3:00 37 40 mph 1010.1mb 49f
2:00 34 37 mph 1010mb 49f
1:00 26 30 mph 1009.5mb 49f
12:00 31 33 mph 1009.3mb 49f
11:00 30 32 mph 1008.9mb 49f
10:00 29 32 mph 1008.3mb 49f
9:00 18 21 mph 1008.2mb 48f
8:00 18 21 mph 1008mb 48f
7:00 11 16 mph 1007.8mb 48f
6:00 9 13 mph 1007.5mb 48f
5:00 7 8 mph 1007.6mb 48f
4:00 8 9 mph 1007.4mb 48f
3:00 8
mph
1007.6mb 48f
2:00 15 16 mph 1007.2mb 48f
1:00 18 20 mph 1006.7mb 48f
12:00 18 21 mph 1006.9mb 49f
mar. 04/25 11:00 21 22 mph 1006.6mb 49f
10:00 22 24 mph 1006.5mb 50f
9:00 24 26 mph 1006.8mb 50f
8:00 24 26 mph 1007.3mb 50f
7:00 22 24 mph 1007.6mb 52f
6:00 24 26 mph 1008.5mb 52f
5:00 26 29 mph 1009.1mb 52f
4:00 23 26 mph 1010.3mb 53f
3:00 24 26 mph 1010.9mb 54f
2:00 24 26 mph 1011.5mb 54f
1:00 18 21 mph 1012.3mb 54f
12:00 20 21 mph 1013mb 53f
11:00 13 14 mph 1013.2mb 52f
10:00 16 17 mph 1013.1mb 51f
9:00 15 17 mph 1013.3mb 51f
8:00 14 15 mph 1013.9mb 48f
7:00 7 8 mph 1013.8mb 47f
6:00 16 20 mph 1013.1mb 48f
5:00 20 22 mph 1012.9mb 48f
4:00 22 24 mph 1012.9mb 48f
3:00 13 14 mph 1013.3mb 49f
2:00 11 13 mph 1013mb 49f
1:00 16 17 mph 1012.7mb 50f
12:00 18 21 mph 1012.8mb 49f
lun. 04/24 11:00 21 24 mph 1012.1mb 49f
10:00 16 18 mph 1011mb 49f
9:00 13 14 mph 1010.5mb 49f
8:00 7 9 mph 1009.7mb 50f